Addison, Pennsylvania
Current Conditions -  °F | °C
As of 4:40 AM on Sunday 23 Nov 2014 (Local Time) from K2G4 Reporting Station
Scattered Clouds Scattered Clouds  
Wind Chill: 40°   Ceiling: Unl
Heat Index: 45°   Visibility: 10mi
Dew Point: 16°   Wind: 9mph
Humidity: 31%   Direction: 230°SW
Pressure: 30.12"   Gusts: NA
Location:  39.75°N, 79.34°W
Report Text: K2G4 230940Z AUTO 23008KT 10SM SCT065 07/M09 A3012 RMK AO1
Loading
Personal Weather Stations






























Interactive Weather Map New forecast layout! Learn more

10-Day Weather Forecast

Advertisements
Track Severe Weather on mobile